Time;durP1;ratioP1;P1;durP2;ratioP2;P2;SDS_P1;SDS_P2;PMS_P1;PMS_P2;Temp;Humidity;BMP_temperature;BMP_pressure;BME280_temperature;BME280_humidity;BME280_pressure;Samples;Min_cycle;Max_cycle;Signal;HPM_P1;HPM_P2
2024/04/20 00:00:09;;;;;;;;;;;;;;;;;;366476;27;1532;-84
2024/04/20 00:00:20;;;;;;;;;;;;;;;;;;365759;27;1436;-84
2024/04/20 00:00:30;;;;;;;;;;;;;;;;;;363966;27;1275;-84
2024/04/20 00:00:40;;;;;;;;;;;;;;;;;;364229;27;997;-84
2024/04/20 00:00:51;;;;;;;;;;;;;;;;;;364147;27;1052;-84
2024/04/20 00:01:01;;;;;;;;;;;;;;;;;;366359;26;1044;-84
2024/04/20 00:01:11;;;;;;;;;;;;;;;;;;368741;26;1031;-84
2024/04/20 00:01:21;;;;;;;;;;;;;;;;;;366500;27;696;-84
2024/04/20 00:01:31;;;;;;;;;;;;;;;;;;366571;26;1056;-84
2024/04/20 00:01:42;;;;;;;;;;;;;;;;;;367022;26;1036;-84
2024/04/20 00:01:52;;;;;;;;;;;;;;;;;;368911;26;1044;-84
2024/04/20 00:02:02;;;;;;;;;;;;;;;;;;371849;26;1250;-84
2024/04/20 00:02:12;;;;;;;;;;;;;;;;;;371321;26;987;-83
2024/04/20 00:02:23;;;;;;;;;;;;;;;;;;368612;26;1352;-84
2024/04/20 00:02:33;;;;;;;;;;;;;;;;;;366534;27;823;-84
2024/04/20 00:02:43;;;;;;;;;;;;;;;;;;370249;26;1449;-84
2024/04/20 00:02:54;;;;;;;;;;;;;;;;;;368718;26;1306;-84
2024/04/20 00:03:04;;;;;;;;;;;;;;;;;;366301;27;1192;-84
2024/04/20 00:03:14;;;;;;;;;;;;;;;;;;371063;26;1708;-84
2024/04/20 00:03:24;;;;;;;;;;;;;;;;;;368592;26;1321;-84
2024/04/20 00:03:35;;;;;;;;;;;;;;;;;;368928;26;992;-84
2024/04/20 00:03:45;;;;;;;;;;;;;;;;;;366323;27;1405;-84
2024/04/20 00:03:55;;;;;;;;;;;;;;;;;;370463;26;2037;-83
2024/04/20 00:04:05;;;;;;;;;;;;;;;;;;366260;27;1826;-84
2024/04/20 00:04:16;;;;;;;;;;;;;;;;;;371184;26;1202;-84
2024/04/20 00:04:26;;;;;;;;;;;;;;;;;;373518;26;1426;-84
2024/04/20 00:04:36;;;;;;;;;;;;;;;;;;373805;26;913;-84
2024/04/20 00:04:47;;;;;;;;;;;;;;;;;;371179;26;1194;-84
2024/04/20 00:04:57;;;;;;;;;;;;;;;;;;368768;26;1350;-84
2024/04/20 00:05:08;;;;;;;;;;;;;;;;;;368675;26;1032;-84
2024/04/20 00:05:18;;;;;;;;;;;;;;;;;;368880;26;829;-84
2024/04/20 00:05:29;;;;;;;;;;;;;;;;;;370265;26;1630;-84
2024/04/20 00:05:39;;;;;;;;;;;;;;;;;;371295;26;1055;-84
2024/04/20 00:05:49;;;;;;;;;;;;;;;;;;371182;26;1043;-84
2024/04/20 00:06:05;;;;;;;;;;;;;;;;;;373431;26;1390;-84
2024/04/20 00:06:16;;;;;;;;;;;;;;;;;;373751;26;798;-84
2024/04/20 00:06:28;;;;;;;;;;;;;;;;;;373744;26;1055;-84
2024/04/20 00:06:38;;;;;;;;;;;;;;;;;;371376;26;1125;-84
2024/04/20 00:06:48;;;;;;;;;;;;;;;;;;373814;26;987;-84
2024/04/20 00:06:58;;;;;;;;;;;;;;;;;;373661;26;1046;-84
2024/04/20 00:07:09;;;;;;;;;;;;;;;;;;373746;26;956;-84
2024/04/20 00:07:19;;;;;;;;;;;;;;;;;;373694;26;1043;-84
2024/04/20 00:07:29;;;;;;;;;;;;;;;;;;373368;26;1059;-84
2024/04/20 00:07:41;;;;;;;;;;;;;;;;;;373592;26;1321;-84
2024/04/20 00:07:51;;;;;;;;;;;;;;;;;;373854;26;1064;-84
2024/04/20 00:08:01;;;;;;;;;;;;;;;;;;373714;26;995;-84
2024/04/20 00:08:12;;;;;;;;;;;;;;;;;;371099;26;1319;-84
2024/04/20 00:08:22;;;;;;;;;;;;;;;;;;371143;26;1271;-84
2024/04/20 00:08:33;;;;;;;;;;;;;;;;;;373660;26;1002;-85
2024/04/20 00:08:45;;;;;;;;;;;;;;;;;;373763;26;1003;-84
2024/04/20 00:08:55;;;;;;;;;;;;;;;;;;373650;26;833;-84
2024/04/20 00:09:05;;;;;;;;;;;;;;;;;;371309;26;1020;-84
2024/04/20 00:09:15;;;;;;;;;;;;;;;;;;371717;26;1427;-84
2024/04/20 00:09:25;;;;;;;;;;;;;;;;;;371184;26;1234;-84
2024/04/20 00:09:36;;;;;;;;;;;;;;;;;;371268;26;1008;-84
2024/04/20 00:09:46;;;;;;;;;;;;;;;;;;368769;26;842;-84
2024/04/20 00:09:56;;;;;;;;;;;;;;;;;;368840;26;1056;-84
2024/04/20 00:10:07;;;;;;;;;;;;;;;;;;368936;26;992;-84
2024/04/20 00:10:18;;;;;;;;;;;;;;;;;;368907;26;895;-84
2024/04/20 00:10:28;;;;;;;;;;;;;;;;;;369825;26;1051;-84
2024/04/20 00:10:38;;;;;;;;;;;;;;;;;;371157;26;1506;-84
2024/04/20 00:10:48;;;;;;;;;;;;;;;;;;366188;27;1289;-84
2024/04/20 00:11:02;;;;;;;;;;;;;;;;;;368831;26;1285;-84
2024/04/20 00:11:12;;;;;;;;;;;;;;;;;;368827;26;997;-84
2024/04/20 00:11:25;;;;;;;;;;;;;;;;;;371903;26;1047;-84
2024/04/20 00:11:35;;;;;;;;;;;;;;;;;;373657;26;1000;-84
2024/04/20 00:11:45;;;;;;;;;;;;;;;;;;371229;26;1024;-84
2024/04/20 00:11:56;;;;;;;;;;;;;;;;;;371236;26;992;-84
2024/04/20 00:12:06;;;;;;;;;;;;;;;;;;373604;26;1235;-84
2024/04/20 00:12:16;;;;;;;;;;;;;;;;;;371263;26;1047;-84
2024/04/20 00:12:26;;;;;;;;;;;;;;;;;;373213;26;1213;-84
2024/04/20 00:12:36;;;;;;;;;;;;;;;;;;371525;26;1755;-84
2024/04/20 00:12:47;;;;;;;;;;;;;;;;;;368814;26;1036;-84
2024/04/20 00:12:57;;;;;;;;;;;;;;;;;;371198;26;1004;-84
2024/04/20 00:13:07;;;;;;;;;;;;;;;;;;371193;26;922;-84
2024/04/20 00:13:17;;;;;;;;;;;;;;;;;;373039;26;1636;-84
2024/04/20 00:13:27;;;;;;;;;;;;;;;;;;368720;26;1088;-84
2024/04/20 00:13:39;;;;;;;;;;;;;;;;;;373598;26;1311;-83
2024/04/20 00:13:51;;;;;;;;;;;;;;;;;;373434;26;1494;-84
2024/04/20 00:14:01;;;;;;;;;;;;;;;;;;373703;26;1576;-84
2024/04/20 00:14:11;;;;;;;;;;;;;;;;;;373727;26;770;-84
2024/04/20 00:14:21;;;;;;;;;;;;;;;;;;373674;26;1284;-84
2024/04/20 00:14:32;;;;;;;;;;;;;;;;;;371173;26;1035;-84
2024/04/20 00:14:42;;;;;;;;;;;;;;;;;;368787;26;965;-84
2024/04/20 00:14:52;;;;;;;;;;;;;;;;;;368771;26;1016;-84
2024/04/20 00:15:03;;;;;;;;;;;;;;;;;;368929;26;1047;-84
2024/04/20 00:15:13;;;;;;;;;;;;;;;;;;368737;26;1160;-84
2024/04/20 00:15:23;;;;;;;;;;;;;;;;;;371213;26;1149;-84
2024/04/20 00:15:41;;;;;;;;;;;;;;;;;;369954;26;1024;-84
2024/04/20 00:15:51;;;;;;;;;;;;;;;;;;371150;26;1703;-84
2024/04/20 00:16:02;;;;;;;;;;;;;;;;;;371135;26;1440;-84
2024/04/20 00:16:12;;;;;;;;;;;;;;;;;;371324;26;925;-84
2024/04/20 00:16:22;;;;;;;;;;;;;;;;;;371304;26;952;-84
2024/04/20 00:16:33;;;;;;;;;;;;;;;;;;371209;26;1222;-84
2024/04/20 00:16:43;;;;;;;;;;;;;;;;;;371215;26;1019;-84
2024/04/20 00:16:55;;;;;;;;;;;;;;;;;;371149;26;1253;-84
2024/04/20 00:17:05;;;;;;;;;;;;;;;;;;368772;26;1047;-84
2024/04/20 00:17:16;;;;;;;;;;;;;;;;;;368789;26;1004;-84
2024/04/20 00:17:26;;;;;;;;;;;;;;;;;;366428;26;853;-84
2024/04/20 00:17:36;;;;;;;;;;;;;;;;;;366532;27;1012;-84
2024/04/20 00:17:47;;;;;;;;;;;;;;;;;;368528;26;1559;-84
2024/04/20 00:17:57;;;;;;;;;;;;;;;;;;371248;26;1043;-84
2024/04/20 00:18:07;;;;;;;;;;;;;;;;;;373603;26;1031;-84
2024/04/20 00:18:17;;;;;;;;;;;;;;;;;;373628;26;1257;-84
2024/04/20 00:18:28;;;;;;;;;;;;;;;;;;373689;26;853;-84
2024/04/20 00:18:38;;;;;;;;;;;;;;;;;;373123;26;1687;-84
2024/04/20 00:18:48;;;;;;;;;;;;;;;;;;371172;26;929;-84
2024/04/20 00:18:59;;;;;;;;;;;;;;;;;;371316;26;984;-84
2024/04/20 00:19:09;;;;;;;;;;;;;;;;;;371046;26;1545;-84
2024/04/20 00:19:19;;;;;;;;;;;;;;;;;;368838;26;1251;-84
2024/04/20 00:19:29;;;;;;;;;;;;;;;;;;366282;27;1027;-84
2024/04/20 00:19:39;;;;;;;;;;;;;;;;;;367574;26;1433;-84
2024/04/20 00:19:51;;;;;;;;;;;;;;;;;;368755;26;818;-84
2024/04/20 00:20:02;;;;;;;;;;;;;;;;;;368917;26;739;-84
2024/04/20 00:20:12;;;;;;;;;;;;;;;;;;366335;27;926;-84
2024/04/20 00:20:22;;;;;;;;;;;;;;;;;;366470;27;767;-84
2024/04/20 00:20:32;;;;;;;;;;;;;;;;;;366294;27;1363;-84
2024/04/20 00:20:43;;;;;;;;;;;;;;;;;;366508;27;818;-84
2024/04/20 00:20:53;;;;;;;;;;;;;;;;;;366231;27;1302;-84
2024/04/20 00:21:03;;;;;;;;;;;;;;;;;;366508;27;803;-84
2024/04/20 00:21:14;;;;;;;;;;;;;;;;;;368702;26;1460;-84
2024/04/20 00:21:24;;;;;;;;;;;;;;;;;;368810;26;1063;-84
2024/04/20 00:21:34;;;;;;;;;;;;;;;;;;368803;26;842;-84
2024/04/20 00:21:44;;;;;;;;;;;;;;;;;;368820;26;1012;-84
2024/04/20 00:21:55;;;;;;;;;;;;;;;;;;368731;26;989;-84
2024/04/20 00:22:05;;;;;;;;;;;;;;;;;;368611;26;1236;-84
2024/04/20 00:22:15;;;;;;;;;;;;;;;;;;373376;26;1325;-84
2024/04/20 00:22:26;;;;;;;;;;;;;;;;;;373646;26;1028;-84
2024/04/20 00:22:36;;;;;;;;;;;;;;;;;;371112;26;988;-84
2024/04/20 00:22:46;;;;;;;;;;;;;;;;;;371301;26;1028;-84
2024/04/20 00:22:56;;;;;;;;;;;;;;;;;;371069;26;980;-84
2024/04/20 00:23:07;;;;;;;;;;;;;;;;;;369093;26;1545;-84
2024/04/20 00:23:17;;;;;;;;;;;;;;;;;;371052;26;1000;-84
2024/04/20 00:23:27;;;;;;;;;;;;;;;;;;371141;26;1355;-84
2024/04/20 00:23:37;;;;;;;;;;;;;;;;;;371159;26;984;-84
2024/04/20 00:23:48;;;;;;;;;;;;;;;;;;371065;26;1421;-84
2024/04/20 00:23:58;;;;;;;;;;;;;;;;;;373599;26;1004;-84
2024/04/20 00:24:08;;;;;;;;;;;;;;;;;;368727;26;1833;-84
2024/04/20 00:24:18;;;;;;;;;;;;;;;;;;366266;27;1726;-84
2024/04/20 00:24:29;;;;;;;;;;;;;;;;;;368734;26;1195;-84
2024/04/20 00:24:39;;;;;;;;;;;;;;;;;;366295;27;1232;-84
2024/04/20 00:24:49;;;;;;;;;;;;;;;;;;366480;27;1032;-84
2024/04/20 00:25:00;;;;;;;;;;;;;;;;;;366400;27;1067;-84
2024/04/20 00:25:10;;;;;;;;;;;;;;;;;;366393;27;1227;-84
2024/04/20 00:25:20;;;;;;;;;;;;;;;;;;368599;26;1261;-84
2024/04/20 00:25:30;;;;;;;;;;;;;;;;;;368671;26;1583;-84
2024/04/20 00:25:41;;;;;;;;;;;;;;;;;;368875;26;1609;-84
2024/04/20 00:25:51;;;;;;;;;;;;;;;;;;368852;26;799;-84
2024/04/20 00:26:02;;;;;;;;;;;;;;;;;;368842;26;854;-84
2024/04/20 00:26:13;;;;;;;;;;;;;;;;;;368713;26;989;-84
2024/04/20 00:26:23;;;;;;;;;;;;;;;;;;366238;27;1285;-84
2024/04/20 00:26:33;;;;;;;;;;;;;;;;;;368508;26;1567;-84
2024/04/20 00:26:44;;;;;;;;;;;;;;;;;;371334;26;1004;-84
2024/04/20 00:26:54;;;;;;;;;;;;;;;;;;371200;26;985;-84
2024/04/20 00:27:05;;;;;;;;;;;;;;;;;;369885;26;1360;-84
2024/04/20 00:27:15;;;;;;;;;;;;;;;;;;371191;26;1031;-84
2024/04/20 00:27:26;;;;;;;;;;;;;;;;;;366371;27;1319;-84
2024/04/20 00:27:36;;;;;;;;;;;;;;;;;;366348;27;1309;-84
2024/04/20 00:27:47;;;;;;;;;;;;;;;;;;366451;27;892;-84
2024/04/20 00:27:57;;;;;;;;;;;;;;;;;;364753;27;1470;-84
2024/04/20 00:28:07;;;;;;;;;;;;;;;;;;366278;27;1508;-84
2024/04/20 00:28:18;;;;;;;;;;;;;;;;;;366460;27;1008;-84
2024/04/20 00:28:28;;;;;;;;;;;;;;;;;;366482;27;1051;-84
2024/04/20 00:28:39;;;;;;;;;;;;;;;;;;366370;27;1028;-84
2024/04/20 00:28:49;;;;;;;;;;;;;;;;;;366477;27;992;-84
2024/04/20 00:28:59;;;;;;;;;;;;;;;;;;366401;27;921;-84
2024/04/20 00:29:11;;;;;;;;;;;;;;;;;;366424;26;1005;-84
2024/04/20 00:29:21;;;;;;;;;;;;;;;;;;366986;26;1016;-84
2024/04/20 00:29:31;;;;;;;;;;;;;;;;;;368746;26;1104;-84
2024/04/20 00:29:41;;;;;;;;;;;;;;;;;;371025;26;1165;-84
2024/04/20 00:29:52;;;;;;;;;;;;;;;;;;370435;26;1360;-84
2024/04/20 00:30:03;;;;;;;;;;;;;;;;;;371288;26;719;-84
2024/04/20 00:30:13;;;;;;;;;;;;;;;;;;368667;26;1481;-84
2024/04/20 00:30:23;;;;;;;;;;;;;;;;;;368804;26;981;-84
2024/04/20 00:30:34;;;;;;;;;;;;;;;;;;366542;27;948;-84
2024/04/20 00:30:44;;;;;;;;;;;;;;;;;;366374;27;1319;-84
2024/04/20 00:30:58;;;;;;;;;;;;;;;;;;366550;27;822;-84
2024/04/20 00:31:08;;;;;;;;;;;;;;;;;;368725;26;1298;-84
2024/04/20 00:31:18;;;;;;;;;;;;;;;;;;370925;26;1302;-84
2024/04/20 00:31:28;;;;;;;;;;;;;;;;;;373709;26;1043;-84
2024/04/20 00:31:39;;;;;;;;;;;;;;;;;;373668;26;1000;-84
2024/04/20 00:31:49;;;;;;;;;;;;;;;;;;372063;26;1012;-84
2024/04/20 00:31:59;;;;;;;;;;;;;;;;;;371244;26;1004;-84
2024/04/20 00:32:10;;;;;;;;;;;;;;;;;;366312;27;1284;-84
2024/04/20 00:32:20;;;;;;;;;;;;;;;;;;366449;27;823;-84
2024/04/20 00:32:30;;;;;;;;;;;;;;;;;;368758;26;1316;-84
2024/04/20 00:32:41;;;;;;;;;;;;;;;;;;368750;26;1254;-84
2024/04/20 00:32:51;;;;;;;;;;;;;;;;;;371138;26;1216;-85
2024/04/20 00:33:01;;;;;;;;;;;;;;;;;;368852;26;1004;-84
2024/04/20 00:33:11;;;;;;;;;;;;;;;;;;366399;27;1044;-84
2024/04/20 00:33:21;;;;;;;;;;;;;;;;;;364043;27;2127;-84
2024/04/20 00:33:32;;;;;;;;;;;;;;;;;;365300;27;1266;-84
2024/04/20 00:33:42;;;;;;;;;;;;;;;;;;364189;27;1032;-84
2024/04/20 00:33:52;;;;;;;;;;;;;;;;;;363742;27;1948;-84
2024/04/20 00:34:03;;;;;;;;;;;;;;;;;;366341;27;1227;-84
2024/04/20 00:34:13;;;;;;;;;;;;;;;;;;366912;26;1477;-84
2024/04/20 00:34:23;;;;;;;;;;;;;;;;;;368830;26;1031;-84
2024/04/20 00:34:33;;;;;;;;;;;;;;;;;;368629;26;1303;-84
2024/04/20 00:34:44;;;;;;;;;;;;;;;;;;368716;26;1322;-84
2024/04/20 00:34:55;;;;;;;;;;;;;;;;;;368747;26;810;-84
2024/04/20 00:35:05;;;;;;;;;;;;;;;;;;368767;26;1027;-84
2024/04/20 00:35:18;;;;;;;;;;;;;;;;;;368765;26;1067;-84
2024/04/20 00:35:28;;;;;;;;;;;;;;;;;;368791;26;1004;-84
2024/04/20 00:35:39;;;;;;;;;;;;;;;;;;367144;26;1448;-84
2024/04/20 00:35:49;;;;;;;;;;;;;;;;;;366461;27;996;-84
2024/04/20 00:35:59;;;;;;;;;;;;;;;;;;366199;27;1264;-84
2024/04/20 00:36:10;;;;;;;;;;;;;;;;;;366547;27;762;-84
2024/04/20 00:36:20;;;;;;;;;;;;;;;;;;366385;27;996;-84
2024/04/20 00:36:30;;;;;;;;;;;;;;;;;;368823;26;993;-84
2024/04/20 00:36:40;;;;;;;;;;;;;;;;;;372349;26;1267;-84
2024/04/20 00:36:51;;;;;;;;;;;;;;;;;;369532;26;1367;-84
2024/04/20 00:37:03;;;;;;;;;;;;;;;;;;370237;26;1437;-84
2024/04/20 00:37:13;;;;;;;;;;;;;;;;;;371284;26;1202;-84
2024/04/20 00:37:23;;;;;;;;;;;;;;;;;;368826;26;949;-84
2024/04/20 00:37:33;;;;;;;;;;;;;;;;;;368858;26;925;-84
2024/04/20 00:37:43;;;;;;;;;;;;;;;;;;368754;26;933;-83
2024/04/20 00:37:54;;;;;;;;;;;;;;;;;;367234;26;1012;-84
2024/04/20 00:38:04;;;;;;;;;;;;;;;;;;366261;27;1346;-84
2024/04/20 00:38:14;;;;;;;;;;;;;;;;;;366664;26;1176;-84
2024/04/20 00:38:24;;;;;;;;;;;;;;;;;;366177;27;1205;-84
2024/04/20 00:38:35;;;;;;;;;;;;;;;;;;367968;26;1634;-84
2024/04/20 00:38:45;;;;;;;;;;;;;;;;;;366333;27;1071;-84
2024/04/20 00:38:55;;;;;;;;;;;;;;;;;;368811;26;1095;-84
2024/04/20 00:39:05;;;;;;;;;;;;;;;;;;368757;26;1000;-84
2024/04/20 00:39:15;;;;;;;;;;;;;;;;;;368791;26;1016;-84
2024/04/20 00:39:26;;;;;;;;;;;;;;;;;;368812;26;889;-84
2024/04/20 00:39:37;;;;;;;;;;;;;;;;;;368796;26;1243;-84
2024/04/20 00:39:47;;;;;;;;;;;;;;;;;;368791;26;743;-84
2024/04/20 00:39:57;;;;;;;;;;;;;;;;;;370012;26;1303;-84
2024/04/20 00:40:07;;;;;;;;;;;;;;;;;;371167;26;1012;-84
2024/04/20 00:40:17;;;;;;;;;;;;;;;;;;371223;26;964;-84
2024/04/20 00:40:28;;;;;;;;;;;;;;;;;;371117;26;1256;-84
2024/04/20 00:40:38;;;;;;;;;;;;;;;;;;371173;26;1487;-84
2024/04/20 00:40:55;;;;;;;;;;;;;;;;;;371130;26;1004;-84
2024/04/20 00:41:05;;;;;;;;;;;;;;;;;;373696;26;932;-84
2024/04/20 00:41:15;;;;;;;;;;;;;;;;;;371245;26;1035;-84
2024/04/20 00:41:25;;;;;;;;;;;;;;;;;;371320;26;862;-84
2024/04/20 00:41:36;;;;;;;;;;;;;;;;;;370915;26;1239;-84
2024/04/20 00:41:47;;;;;;;;;;;;;;;;;;368800;26;1211;-84
2024/04/20 00:41:57;;;;;;;;;;;;;;;;;;371128;26;1202;-84
2024/04/20 00:42:08;;;;;;;;;;;;;;;;;;373671;26;1296;-84
2024/04/20 00:42:19;;;;;;;;;;;;;;;;;;373560;26;1356;-84
2024/04/20 00:42:29;;;;;;;;;;;;;;;;;;371202;26;1059;-84
2024/04/20 00:42:39;;;;;;;;;;;;;;;;;;368708;26;1000;-84
2024/04/20 00:42:49;;;;;;;;;;;;;;;;;;368880;26;988;-84
2024/04/20 00:43:00;;;;;;;;;;;;;;;;;;368557;26;1221;-84
2024/04/20 00:43:17;;;;;;;;;;;;;;;;;;368795;26;1067;-84
2024/04/20 00:43:27;;;;;;;;;;;;;;;;;;368655;26;767;-84
2024/04/20 00:43:37;;;;;;;;;;;;;;;;;;368782;26;1000;-84
2024/04/20 00:43:48;;;;;;;;;;;;;;;;;;368852;26;1055;-84
2024/04/20 00:43:58;;;;;;;;;;;;;;;;;;372408;26;1428;-84
2024/04/20 00:44:08;;;;;;;;;;;;;;;;;;371371;26;2085;-84
2024/04/20 00:44:19;;;;;;;;;;;;;;;;;;371023;26;1202;-84
2024/04/20 00:44:29;;;;;;;;;;;;;;;;;;368837;26;980;-84
2024/04/20 00:44:40;;;;;;;;;;;;;;;;;;367495;26;1638;-84
2024/04/20 00:44:50;;;;;;;;;;;;;;;;;;369663;26;1448;-84
2024/04/20 00:45:00;;;;;;;;;;;;;;;;;;371052;26;916;-84
2024/04/20 00:45:10;;;;;;;;;;;;;;;;;;366277;26;1345;-84
2024/04/20 00:45:21;;;;;;;;;;;;;;;;;;366293;27;1068;-84
2024/04/20 00:45:31;;;;;;;;;;;;;;;;;;366532;27;921;-84
2024/04/20 00:45:42;;;;;;;;;;;;;;;;;;366334;27;1064;-84
2024/04/20 00:45:53;;;;;;;;;;;;;;;;;;366454;27;905;-84
2024/04/20 00:46:04;;;;;;;;;;;;;;;;;;366383;27;1005;-84
2024/04/20 00:46:14;;;;;;;;;;;;;;;;;;371074;26;1313;-84
2024/04/20 00:46:25;;;;;;;;;;;;;;;;;;372186;26;1135;-84
2024/04/20 00:46:35;;;;;;;;;;;;;;;;;;373720;26;1055;-84
2024/04/20 00:46:46;;;;;;;;;;;;;;;;;;373623;26;790;-83
2024/04/20 00:47:01;;;;;;;;;;;;;;;;;;371082;26;1055;-84
2024/04/20 00:47:11;;;;;;;;;;;;;;;;;;372558;26;1817;-84
2024/04/20 00:47:22;;;;;;;;;;;;;;;;;;368920;26;897;-84
2024/04/20 00:47:33;;;;;;;;;;;;;;;;;;368691;26;1016;-84
2024/04/20 00:47:43;;;;;;;;;;;;;;;;;;368875;26;799;-83
2024/04/20 00:47:53;;;;;;;;;;;;;;;;;;368535;26;799;-84
2024/04/20 00:48:04;;;;;;;;;;;;;;;;;;370908;26;1378;-84
2024/04/20 00:48:14;;;;;;;;;;;;;;;;;;371217;26;928;-84
2024/04/20 00:48:25;;;;;;;;;;;;;;;;;;371235;26;1012;-84
2024/04/20 00:48:36;;;;;;;;;;;;;;;;;;368709;26;1253;-84
2024/04/20 00:48:46;;;;;;;;;;;;;;;;;;368840;26;1008;-84
2024/04/20 00:48:57;;;;;;;;;;;;;;;;;;369500;26;1547;-84
2024/04/20 00:49:08;;;;;;;;;;;;;;;;;;368949;26;1667;-84
2024/04/20 00:49:18;;;;;;;;;;;;;;;;;;373313;26;1709;-84
2024/04/20 00:49:30;;;;;;;;;;;;;;;;;;373655;26;976;-84
2024/04/20 00:49:40;;;;;;;;;;;;;;;;;;371099;26;1289;-84
2024/04/20 00:49:50;;;;;;;;;;;;;;;;;;373589;26;1250;-84
2024/04/20 00:50:01;;;;;;;;;;;;;;;;;;373738;26;1075;-84
2024/04/20 00:50:11;;;;;;;;;;;;;;;;;;371082;26;1198;-84
2024/04/20 00:50:21;;;;;;;;;;;;;;;;;;368799;26;715;-84
2024/04/20 00:50:33;;;;;;;;;;;;;;;;;;368477;26;1190;-84
2024/04/20 00:50:43;;;;;;;;;;;;;;;;;;368705;26;1294;-83
2024/04/20 00:50:53;;;;;;;;;;;;;;;;;;368850;26;814;-84
2024/04/20 00:51:04;;;;;;;;;;;;;;;;;;368914;26;1029;-84
2024/04/20 00:51:16;;;;;;;;;;;;;;;;;;369559;26;1303;-84
2024/04/20 00:51:26;;;;;;;;;;;;;;;;;;368879;26;1083;-84
2024/04/20 00:51:36;;;;;;;;;;;;;;;;;;368577;26;1455;-84
2024/04/20 00:51:47;;;;;;;;;;;;;;;;;;368802;26;1047;-84
2024/04/20 00:51:58;;;;;;;;;;;;;;;;;;368824;26;889;-84
2024/04/20 00:52:09;;;;;;;;;;;;;;;;;;368780;26;1407;-84
2024/04/20 00:52:20;;;;;;;;;;;;;;;;;;368728;26;929;-84
2024/04/20 00:52:30;;;;;;;;;;;;;;;;;;368764;26;1036;-84
2024/04/20 00:52:41;;;;;;;;;;;;;;;;;;368646;26;1335;-84
2024/04/20 00:52:51;;;;;;;;;;;;;;;;;;368573;26;1236;-84
2024/04/20 00:53:02;;;;;;;;;;;;;;;;;;371700;26;1519;-84
2024/04/20 00:53:13;;;;;;;;;;;;;;;;;;373565;26;1253;-83
2024/04/20 00:53:24;;;;;;;;;;;;;;;;;;373566;26;1194;-84
2024/04/20 00:53:35;;;;;;;;;;;;;;;;;;373730;26;699;-84
2024/04/20 00:53:46;;;;;;;;;;;;;;;;;;368623;26;1374;-84
2024/04/20 00:53:58;;;;;;;;;;;;;;;;;;373619;26;1207;-84
2024/04/20 00:54:10;;;;;;;;;;;;;;;;;;371260;26;1551;-84
2024/04/20 00:54:20;;;;;;;;;;;;;;;;;;371125;26;1582;-84
2024/04/20 00:54:30;;;;;;;;;;;;;;;;;;368950;26;1751;-84
2024/04/20 00:54:41;;;;;;;;;;;;;;;;;;369000;26;1562;-84
2024/04/20 00:54:51;;;;;;;;;;;;;;;;;;371108;26;1267;-84
2024/04/20 00:55:01;;;;;;;;;;;;;;;;;;371269;26;1032;-84
2024/04/20 00:55:12;;;;;;;;;;;;;;;;;;371155;26;1111;-84
2024/04/20 00:55:22;;;;;;;;;;;;;;;;;;373605;26;1262;-84
2024/04/20 00:55:33;;;;;;;;;;;;;;;;;;371121;26;806;-84
2024/04/20 00:55:44;;;;;;;;;;;;;;;;;;371238;26;1055;-84
2024/04/20 00:55:54;;;;;;;;;;;;;;;;;;373490;26;1191;-84
2024/04/20 00:56:04;;;;;;;;;;;;;;;;;;374450;26;1237;-84
2024/04/20 00:56:15;;;;;;;;;;;;;;;;;;375903;26;1418;-84
2024/04/20 00:56:25;;;;;;;;;;;;;;;;;;368740;26;1289;-84
2024/04/20 00:56:36;;;;;;;;;;;;;;;;;;373481;26;1375;-84
2024/04/20 00:56:46;;;;;;;;;;;;;;;;;;371157;26;1302;-84
2024/04/20 00:56:57;;;;;;;;;;;;;;;;;;373601;26;1007;-84
2024/04/20 00:57:08;;;;;;;;;;;;;;;;;;373746;26;912;-84
2024/04/20 00:57:20;;;;;;;;;;;;;;;;;;371795;26;1443;-84
2024/04/20 00:57:30;;;;;;;;;;;;;;;;;;371632;26;1632;-84
2024/04/20 00:57:41;;;;;;;;;;;;;;;;;;371832;26;1340;-84
2024/04/20 00:57:51;;;;;;;;;;;;;;;;;;368715;26;1424;-84
2024/04/20 00:58:04;;;;;;;;;;;;;;;;;;368777;26;977;-84
2024/04/20 00:58:15;;;;;;;;;;;;;;;;;;368863;26;858;-84
2024/04/20 00:58:26;;;;;;;;;;;;;;;;;;368817;26;1055;-84
2024/04/20 00:58:36;;;;;;;;;;;;;;;;;;366363;27;1226;-84
2024/04/20 00:58:46;;;;;;;;;;;;;;;;;;368771;26;1193;-84
2024/04/20 00:58:57;;;;;;;;;;;;;;;;;;371063;26;1336;-84
2024/04/20 00:59:08;;;;;;;;;;;;;;;;;;368709;26;1257;-84
2024/04/20 00:59:18;;;;;;;;;;;;;;;;;;368551;26;1467;-84
2024/04/20 00:59:31;;;;;;;;;;;;;;;;;;368799;26;953;-84
2024/04/20 00:59:41;;;;;;;;;;;;;;;;;;373415;26;1324;-84
2024/04/20 00:59:51;;;;;;;;;;;;;;;;;;373748;26;774;-83
2024/04/20 01:00:02;;;;;;;;;;;;;;;;;;373530;26;1035;-84
2024/04/20 01:00:12;;;;;;;;;;;;;;;;;;371256;26;988;-84
2024/04/20 01:00:23;;;;;;;;;;;;;;;;;;371249;26;790;-84
2024/04/20 01:00:35;;;;;;;;;;;;;;;;;;371252;26;1007;-84
2024/04/20 01:00:45;;;;;;;;;;;;;;;;;;371180;26;1047;-84
2024/04/20 01:00:56;;;;;;;;;;;;;;;;;;370916;26;1323;-84
2024/04/20 01:01:06;;;;;;;;;;;;;;;;;;371212;26;790;-84
2024/04/20 01:01:16;;;;;;;;;;;;;;;;;;369582;26;1562;-84
2024/04/20 01:01:27;;;;;;;;;;;;;;;;;;366350;27;996;-84
2024/04/20 01:01:37;;;;;;;;;;;;;;;;;;368723;26;992;-83
2024/04/20 01:01:48;;;;;;;;;;;;;;;;;;371122;26;2128;-84
2024/04/20 01:01:58;;;;;;;;;;;;;;;;;;371255;26;1043;-84
2024/04/20 01:02:09;;;;;;;;;;;;;;;;;;371108;26;1272;-84
2024/04/20 01:02:19;;;;;;;;;;;;;;;;;;371294;26;945;-84
2024/04/20 01:02:30;;;;;;;;;;;;;;;;;;373858;26;872;-84
2024/04/20 01:02:40;;;;;;;;;;;;;;;;;;376084;26;1561;-84
2024/04/20 01:02:50;;;;;;;;;;;;;;;;;;375972;26;1270;-84
2024/04/20 01:03:01;;;;;;;;;;;;;;;;;;376136;26;988;-84
2024/04/20 01:03:11;;;;;;;;;;;;;;;;;;371149;26;1248;-84
2024/04/20 01:03:26;;;;;;;;;;;;;;;;;;371089;26;1259;-84
2024/04/20 01:03:36;;;;;;;;;;;;;;;;;;373506;26;1206;-84
2024/04/20 01:03:46;;;;;;;;;;;;;;;;;;371195;26;1075;-84
2024/04/20 01:03:57;;;;;;;;;;;;;;;;;;371078;26;1039;-84
2024/04/20 01:04:07;;;;;;;;;;;;;;;;;;371103;26;1912;-84
2024/04/20 01:04:17;;;;;;;;;;;;;;;;;;371194;26;928;-84
2024/04/20 01:04:28;;;;;;;;;;;;;;;;;;375249;26;1451;-84
2024/04/20 01:04:38;;;;;;;;;;;;;;;;;;370874;26;1194;-84
2024/04/20 01:04:49;;;;;;;;;;;;;;;;;;371076;26;1287;-84
2024/04/20 01:04:59;;;;;;;;;;;;;;;;;;371121;26;1047;-84
2024/04/20 01:05:09;;;;;;;;;;;;;;;;;;373688;26;1169;-84
2024/04/20 01:05:20;;;;;;;;;;;;;;;;;;370995;26;1680;-84
2024/04/20 01:05:31;;;;;;;;;;;;;;;;;;368799;26;1075;-84
2024/04/20 01:05:42;;;;;;;;;;;;;;;;;;368733;26;1055;-84
2024/04/20 01:05:52;;;;;;;;;;;;;;;;;;366509;27;1126;-84
2024/04/20 01:06:02;;;;;;;;;;;;;;;;;;368589;26;1258;-84
2024/04/20 01:06:13;;;;;;;;;;;;;;;;;;371091;26;1195;-84
2024/04/20 01:06:23;;;;;;;;;;;;;;;;;;373488;26;1200;-84
2024/04/20 01:06:33;;;;;;;;;;;;;;;;;;373709;26;698;-84
2024/04/20 01:06:43;;;;;;;;;;;;;;;;;;373436;26;1265;-84
2024/04/20 01:06:54;;;;;;;;;;;;;;;;;;373493;26;1343;-84
2024/04/20 01:07:04;;;;;;;;;;;;;;;;;;371093;26;1218;-84
2024/04/20 01:07:14;;;;;;;;;;;;;;;;;;371204;26;1075;-84
2024/04/20 01:07:24;;;;;;;;;;;;;;;;;;372465;26;1169;-84
2024/04/20 01:07:35;;;;;;;;;;;;;;;;;;373677;26;955;-84
2024/04/20 01:07:45;;;;;;;;;;;;;;;;;;373176;26;1419;-84
2024/04/20 01:07:55;;;;;;;;;;;;;;;;;;371260;26;1012;-84
2024/04/20 01:08:06;;;;;;;;;;;;;;;;;;371074;26;791;-84
2024/04/20 01:08:16;;;;;;;;;;;;;;;;;;371211;26;913;-84
2024/04/20 01:08:26;;;;;;;;;;;;;;;;;;371113;26;1008;-84
2024/04/20 01:08:37;;;;;;;;;;;;;;;;;;371186;26;993;-84
2024/04/20 01:08:47;;;;;;;;;;;;;;;;;;371131;26;1003;-84
2024/04/20 01:08:57;;;;;;;;;;;;;;;;;;369237;26;1425;-84
2024/04/20 01:09:08;;;;;;;;;;;;;;;;;;371102;26;976;-84
2024/04/20 01:09:18;;;;;;;;;;;;;;;;;;371662;26;1649;-84
2024/04/20 01:09:28;;;;;;;;;;;;;;;;;;374394;26;857;-84
2024/04/20 01:09:38;;;;;;;;;;;;;;;;;;375945;26;1197;-84
2024/04/20 01:09:49;;;;;;;;;;;;;;;;;;376152;26;1056;-84
2024/04/20 01:09:59;;;;;;;;;;;;;;;;;;376191;26;821;-84
2024/04/20 01:10:09;;;;;;;;;;;;;;;;;;376008;26;1066;-84
2024/04/20 01:10:19;;;;;;;;;;;;;;;;;;376149;26;1047;-84
2024/04/20 01:10:30;;;;;;;;;;;;;;;;;;373395;26;1342;-84
2024/04/20 01:10:40;;;;;;;;;;;;;;;;;;372942;26;1377;-84
2024/04/20 01:10:50;;;;;;;;;;;;;;;;;;371236;26;957;-84
2024/04/20 01:11:01;;;;;;;;;;;;;;;;;;373602;26;1177;-84
2024/04/20 01:11:12;;;;;;;;;;;;;;;;;;375974;26;1329;-84
2024/04/20 01:11:22;;;;;;;;;;;;;;;;;;371193;26;1047;-84
2024/04/20 01:11:33;;;;;;;;;;;;;;;;;;368712;26;992;-84
2024/04/20 01:11:43;;;;;;;;;;;;;;;;;;371128;26;1291;-84
2024/04/20 01:11:53;;;;;;;;;;;;;;;;;;373520;26;1304;-84
2024/04/20 01:12:03;;;;;;;;;;;;;;;;;;373525;26;1191;-84
2024/04/20 01:12:14;;;;;;;;;;;;;;;;;;372048;26;1358;-84
2024/04/20 01:12:24;;;;;;;;;;;;;;;;;;371170;26;1024;-84
2024/04/20 01:12:35;;;;;;;;;;;;;;;;;;373614;26;1067;-84
2024/04/20 01:12:46;;;;;;;;;;;;;;;;;;373716;26;1012;-84
2024/04/20 01:13:06;;;;;;;;;;;;;;;;;;373702;26;1019;-84
2024/04/20 01:13:23;;;;;;;;;;;;;;;;;;373681;26;1072;-84
2024/04/20 01:13:33;;;;;;;;;;;;;;;;;;373654;26;1015;-84
2024/04/20 01:13:53;;;;;;;;;;;;;;;;;;371043;26;1088;-84
2024/04/20 01:14:03;;;;;;;;;;;;;;;;;;371103;26;1051;-83
2024/04/20 01:14:13;;;;;;;;;;;;;;;;;;373620;26;1008;-84
2024/04/20 01:14:23;;;;;;;;;;;;;;;;;;371940;26;1534;-84
2024/04/20 01:14:34;;;;;;;;;;;;;;;;;;373698;26;1004;-84
2024/04/20 01:14:44;;;;;;;;;;;;;;;;;;373687;26;1071;-83
2024/04/20 01:14:54;;;;;;;;;;;;;;;;;;375408;26;924;-84
2024/04/20 01:15:05;;;;;;;;;;;;;;;;;;376164;26;1449;-84
2024/04/20 01:15:15;;;;;;;;;;;;;;;;;;375837;26;1733;-84